Terminal Aerodrome Forecast
Issued by NWS

Home | Current Version | Previous Version | Text Only | Print | Product List | Glossary On
Versions: 1 2 3 4 5 6 7 8 9 10 11 12
666
FTUS46 KSGX 241834 AAA
TAFONT
TAF AMD
KONT 241834Z 2419/2524 VRB06KT P6SM BKN035
     FM242000 26012G22KT P6SM SCT200
     FM250500 VRB06KT P6SM FEW020 SCT200
     FM252000 26010G18KT P6SM SCT200=

USA.gov is the U.S. government's official web portal to all federal, state and local government web resources and services.